sensor_id;sensor_type;location;lat;lon;timestamp;temperature;humidity
13052;DHT22;6592;47.484;9.726;2023-09-19T00:00:39;16.80;99.90
13052;DHT22;6592;47.484;9.726;2023-09-19T00:03:09;16.80;99.90
13052;DHT22;6592;47.484;9.726;2023-09-19T00:05:39;16.80;99.90
13052;DHT22;6592;47.484;9.726;2023-09-19T00:08:10;16.80;99.90
13052;DHT22;6592;47.484;9.726;2023-09-19T00:10:42;16.90;99.90
13052;DHT22;6592;47.484;9.726;2023-09-19T00:13:11;16.90;99.90
13052;DHT22;6592;47.484;9.726;2023-09-19T00:15:43;16.90;99.90
13052;DHT22;6592;47.484;9.726;2023-09-19T00:18:17;16.80;99.90
13052;DHT22;6592;47.484;9.726;2023-09-19T00:20:46;16.80;99.90
13052;DHT22;6592;47.484;9.726;2023-09-19T00:23:17;16.80;99.90
13052;DHT22;6592;47.484;9.726;2023-09-19T00:25:48;16.70;99.90
13052;DHT22;6592;47.484;9.726;2023-09-19T00:28:17;16.70;99.90
13052;DHT22;6592;47.484;9.726;2023-09-19T00:30:47;16.60;99.90
13052;DHT22;6592;47.484;9.726;2023-09-19T00:33:17;16.40;99.90
13052;DHT22;6592;47.484;9.726;2023-09-19T00:35:50;16.60;99.90
13052;DHT22;6592;47.484;9.726;2023-09-19T00:38:19;16.60;99.90
13052;DHT22;6592;47.484;9.726;2023-09-19T00:40:50;16.70;99.90
13052;DHT22;6592;47.484;9.726;2023-09-19T00:43:19;16.70;99.90
13052;DHT22;6592;47.484;9.726;2023-09-19T00:45:49;16.80;99.90
13052;DHT22;6592;47.484;9.726;2023-09-19T00:48:19;16.80;99.90
13052;DHT22;6592;47.484;9.726;2023-09-19T00:50:49;16.70;99.90
13052;DHT22;6592;47.484;9.726;2023-09-19T00:53:21;16.60;99.90
13052;DHT22;6592;47.484;9.726;2023-09-19T00:55:53;16.60;99.90
13052;DHT22;6592;47.484;9.726;2023-09-19T00:58:23;16.60;99.90
13052;DHT22;6592;47.484;9.726;2023-09-19T01:00:52;16.60;99.90
13052;DHT22;6592;47.484;9.726;2023-09-19T01:03:22;16.70;99.90
13052;DHT22;6592;47.484;9.726;2023-09-19T01:05:50;16.70;99.90
13052;DHT22;6592;47.484;9.726;2023-09-19T01:08:19;16.70;99.90
13052;DHT22;6592;47.484;9.726;2023-09-19T01:10:55;16.70;99.90
13052;DHT22;6592;47.484;9.726;2023-09-19T01:13:30;16.70;99.90
13052;DHT22;6592;47.484;9.726;2023-09-19T01:16:08;16.80;99.90
13052;DHT22;6592;47.484;9.726;2023-09-19T01:18:46;16.80;99.90
13052;DHT22;6592;47.484;9.726;2023-09-19T01:21:22;16.80;99.90
13052;DHT22;6592;47.484;9.726;2023-09-19T01:27:30;16.80;99.90
13052;DHT22;6592;47.484;9.726;2023-09-19T01:30:10;16.90;99.90
13052;DHT22;6592;47.484;9.726;2023-09-19T01:32:41;16.90;99.90
13052;DHT22;6592;47.484;9.726;2023-09-19T01:35:10;17.00;99.90
13052;DHT22;6592;47.484;9.726;2023-09-19T01:37:40;17.10;99.90
13052;DHT22;6592;47.484;9.726;2023-09-19T01:40:12;17.10;99.90
13052;DHT22;6592;47.484;9.726;2023-09-19T01:42:54;17.20;99.90
13052;DHT22;6592;47.484;9.726;2023-09-19T01:45:33;17.20;99.90
13052;DHT22;6592;47.484;9.726;2023-09-19T01:48:13;17.20;99.90
13052;DHT22;6592;47.484;9.726;2023-09-19T01:50:51;17.20;99.90
13052;DHT22;6592;47.484;9.726;2023-09-19T01:53:24;17.30;99.90
13052;DHT22;6592;47.484;9.726;2023-09-19T01:55:55;17.30;99.90
13052;DHT22;6592;47.484;9.726;2023-09-19T01:58:29;17.40;99.90
13052;DHT22;6592;47.484;9.726;2023-09-19T02:01:03;17.40;99.90
13052;DHT22;6592;47.484;9.726;2023-09-19T02:03:34;17.40;99.90
13052;DHT22;6592;47.484;9.726;2023-09-19T02:06:04;17.40;99.90
13052;DHT22;6592;47.484;9.726;2023-09-19T02:08:38;17.40;99.90
13052;DHT22;6592;47.484;9.726;2023-09-19T02:11:07;17.40;99.90
13052;DHT22;6592;47.484;9.726;2023-09-19T02:13:35;17.50;99.90
13052;DHT22;6592;47.484;9.726;2023-09-19T02:16:05;17.50;99.90
13052;DHT22;6592;47.484;9.726;2023-09-19T02:18:34;17.50;99.90
13052;DHT22;6592;47.484;9.726;2023-09-19T02:21:03;17.50;99.90
13052;DHT22;6592;47.484;9.726;2023-09-19T02:23:33;17.70;99.90
13052;DHT22;6592;47.484;9.726;2023-09-19T02:26:01;17.60;99.90
13052;DHT22;6592;47.484;9.726;2023-09-19T02:28:30;17.60;99.90
13052;DHT22;6592;47.484;9.726;2023-09-19T02:30:59;17.60;99.90
13052;DHT22;6592;47.484;9.726;2023-09-19T02:33:29;17.70;99.90
13052;DHT22;6592;47.484;9.726;2023-09-19T02:36:00;17.60;99.90
13052;DHT22;6592;47.484;9.726;2023-09-19T02:38:31;17.60;99.90
13052;DHT22;6592;47.484;9.726;2023-09-19T02:40:59;17.60;99.90
13052;DHT22;6592;47.484;9.726;2023-09-19T02:43:28;17.60;99.90
13052;DHT22;6592;47.484;9.726;2023-09-19T02:45:56;17.60;99.90
13052;DHT22;6592;47.484;9.726;2023-09-19T02:48:25;17.60;99.90
13052;DHT22;6592;47.484;9.726;2023-09-19T02:50:55;17.60;99.90
13052;DHT22;6592;47.484;9.726;2023-09-19T02:53:23;17.60;99.90
13052;DHT22;6592;47.484;9.726;2023-09-19T02:55:52;17.60;99.90
13052;DHT22;6592;47.484;9.726;2023-09-19T02:58:21;17.60;99.90
13052;DHT22;6592;47.484;9.726;2023-09-19T03:00:52;17.60;99.90
13052;DHT22;6592;47.484;9.726;2023-09-19T03:03:22;17.50;99.90
13052;DHT22;6592;47.484;9.726;2023-09-19T03:05:51;17.50;99.90
13052;DHT22;6592;47.484;9.726;2023-09-19T03:08:23;17.40;99.90
13052;DHT22;6592;47.484;9.726;2023-09-19T03:10:51;17.40;99.90
13052;DHT22;6592;47.484;9.726;2023-09-19T03:13:20;17.40;99.90
13052;DHT22;6592;47.484;9.726;2023-09-19T03:15:48;17.40;99.90
13052;DHT22;6592;47.484;9.726;2023-09-19T03:18:17;17.40;99.90
13052;DHT22;6592;47.484;9.726;2023-09-19T03:20:52;17.30;99.90
13052;DHT22;6592;47.484;9.726;2023-09-19T03:23:23;17.30;99.90
13052;DHT22;6592;47.484;9.726;2023-09-19T03:25:53;17.20;99.90
13052;DHT22;6592;47.484;9.726;2023-09-19T03:28:21;17.20;99.90
13052;DHT22;6592;47.484;9.726;2023-09-19T03:31:00;17.20;99.90
13052;DHT22;6592;47.484;9.726;2023-09-19T03:33:28;17.00;99.90
13052;DHT22;6592;47.484;9.726;2023-09-19T03:35:58;16.90;99.90
13052;DHT22;6592;47.484;9.726;2023-09-19T03:38:29;16.90;99.90
13052;DHT22;6592;47.484;9.726;2023-09-19T03:40:57;17.00;99.90
13052;DHT22;6592;47.484;9.726;2023-09-19T03:43:25;17.00;99.90
13052;DHT22;6592;47.484;9.726;2023-09-19T03:45:54;17.00;99.90
13052;DHT22;6592;47.484;9.726;2023-09-19T03:48:22;17.10;99.90
13052;DHT22;6592;47.484;9.726;2023-09-19T03:50:50;17.10;99.90
13052;DHT22;6592;47.484;9.726;2023-09-19T03:53:19;17.00;99.90
13052;DHT22;6592;47.484;9.726;2023-09-19T03:55:49;17.00;99.90
13052;DHT22;6592;47.484;9.726;2023-09-19T03:58:17;17.00;99.90
13052;DHT22;6592;47.484;9.726;2023-09-19T04:00:45;17.00;99.90
13052;DHT22;6592;47.484;9.726;2023-09-19T04:03:15;17.00;99.90
13052;DHT22;6592;47.484;9.726;2023-09-19T04:05:48;16.90;99.90
13052;DHT22;6592;47.484;9.726;2023-09-19T04:08:16;16.90;99.90
13052;DHT22;6592;47.484;9.726;2023-09-19T04:10:44;16.90;99.90
13052;DHT22;6592;47.484;9.726;2023-09-19T04:13:14;16.90;99.90
13052;DHT22;6592;47.484;9.726;2023-09-19T04:15:43;17.00;99.90
13052;DHT22;6592;47.484;9.726;2023-09-19T04:18:13;16.90;99.90
13052;DHT22;6592;47.484;9.726;2023-09-19T04:20:41;16.90;99.90
13052;DHT22;6592;47.484;9.726;2023-09-19T04:23:09;16.90;99.90
13052;DHT22;6592;47.484;9.726;2023-09-19T04:25:40;16.90;99.90
13052;DHT22;6592;47.484;9.726;2023-09-19T04:28:09;16.90;99.90
13052;DHT22;6592;47.484;9.726;2023-09-19T04:30:39;16.80;99.90
13052;DHT22;6592;47.484;9.726;2023-09-19T04:33:08;16.80;99.90
13052;DHT22;6592;47.484;9.726;2023-09-19T04:35:36;16.80;99.90
13052;DHT22;6592;47.484;9.726;2023-09-19T04:38:05;16.70;99.90
13052;DHT22;6592;47.484;9.726;2023-09-19T04:40:34;16.70;99.90
13052;DHT22;6592;47.484;9.726;2023-09-19T04:43:02;16.70;99.90
13052;DHT22;6592;47.484;9.726;2023-09-19T04:45:31;16.70;99.90
13052;DHT22;6592;47.484;9.726;2023-09-19T04:48:00;16.70;99.90
13052;DHT22;6592;47.484;9.726;2023-09-19T04:50:29;16.70;99.90
13052;DHT22;6592;47.484;9.726;2023-09-19T04:52:58;16.70;99.90
13052;DHT22;6592;47.484;9.726;2023-09-19T04:55:27;16.80;99.90
13052;DHT22;6592;47.484;9.726;2023-09-19T04:57:57;16.80;99.90
13052;DHT22;6592;47.484;9.726;2023-09-19T05:00:25;16.80;99.90
13052;DHT22;6592;47.484;9.726;2023-09-19T05:02:56;16.70;99.90
13052;DHT22;6592;47.484;9.726;2023-09-19T05:05:26;16.60;99.90
13052;DHT22;6592;47.484;9.726;2023-09-19T05:07:55;16.60;99.90
13052;DHT22;6592;47.484;9.726;2023-09-19T05:10:24;16.60;99.90
13052;DHT22;6592;47.484;9.726;2023-09-19T05:12:53;16.60;99.90
13052;DHT22;6592;47.484;9.726;2023-09-19T05:15:22;16.60;99.90
13052;DHT22;6592;47.484;9.726;2023-09-19T05:17:51;16.60;99.90
13052;DHT22;6592;47.484;9.726;2023-09-19T05:20:26;16.60;99.90
13052;DHT22;6592;47.484;9.726;2023-09-19T05:23:00;16.70;99.90
13052;DHT22;6592;47.484;9.726;2023-09-19T05:25:35;16.70;99.90
13052;DHT22;6592;47.484;9.726;2023-09-19T05:28:06;16.70;99.90
13052;DHT22;6592;47.484;9.726;2023-09-19T05:30:35;16.70;99.90
13052;DHT22;6592;47.484;9.726;2023-09-19T05:33:05;16.80;99.90
13052;DHT22;6592;47.484;9.726;2023-09-19T05:35:36;16.80;99.90
13052;DHT22;6592;47.484;9.726;2023-09-19T05:38:06;16.90;99.90
13052;DHT22;6592;47.484;9.726;2023-09-19T05:40:36;16.90;99.90
13052;DHT22;6592;47.484;9.726;2023-09-19T05:43:05;17.00;99.90
13052;DHT22;6592;47.484;9.726;2023-09-19T05:45:34;17.00;99.90
13052;DHT22;6592;47.484;9.726;2023-09-19T05:48:08;17.00;99.90
13052;DHT22;6592;47.484;9.726;2023-09-19T05:50:38;17.10;99.90
13052;DHT22;6592;47.484;9.726;2023-09-19T05:53:06;17.10;99.90
13052;DHT22;6592;47.484;9.726;2023-09-19T05:55:35;17.00;99.90
13052;DHT22;6592;47.484;9.726;2023-09-19T05:58:03;17.10;99.90
13052;DHT22;6592;47.484;9.726;2023-09-19T06:00:31;17.00;99.90
13052;DHT22;6592;47.484;9.726;2023-09-19T06:03:02;17.00;99.90
13052;DHT22;6592;47.484;9.726;2023-09-19T06:05:31;17.00;99.90
13052;DHT22;6592;47.484;9.726;2023-09-19T06:08:01;16.90;99.90
13052;DHT22;6592;47.484;9.726;2023-09-19T06:10:35;16.90;99.90
13052;DHT22;6592;47.484;9.726;2023-09-19T06:13:03;16.90;99.90
13052;DHT22;6592;47.484;9.726;2023-09-19T06:15:33;16.90;99.90
13052;DHT22;6592;47.484;9.726;2023-09-19T06:18:03;16.90;99.90
13052;DHT22;6592;47.484;9.726;2023-09-19T06:20:32;17.00;99.90
13052;DHT22;6592;47.484;9.726;2023-09-19T06:23:03;16.90;99.90
13052;DHT22;6592;47.484;9.726;2023-09-19T06:25:31;16.90;99.90
13052;DHT22;6592;47.484;9.726;2023-09-19T06:28:00;17.00;99.90
13052;DHT22;6592;47.484;9.726;2023-09-19T06:30:32;17.00;99.90
13052;DHT22;6592;47.484;9.726;2023-09-19T06:33:01;17.10;99.90
13052;DHT22;6592;47.484;9.726;2023-09-19T06:35:32;17.10;99.90
13052;DHT22;6592;47.484;9.726;2023-09-19T06:38:04;17.10;99.90
13052;DHT22;6592;47.484;9.726;2023-09-19T06:40:34;17.20;99.90
13052;DHT22;6592;47.484;9.726;2023-09-19T06:43:03;17.20;99.90
13052;DHT22;6592;47.484;9.726;2023-09-19T06:45:33;17.30;99.90
13052;DHT22;6592;47.484;9.726;2023-09-19T06:48:02;17.30;99.90
13052;DHT22;6592;47.484;9.726;2023-09-19T06:50:30;17.30;99.90
13052;DHT22;6592;47.484;9.726;2023-09-19T06:53:00;17.40;99.90
13052;DHT22;6592;47.484;9.726;2023-09-19T06:55:30;17.50;99.90
13052;DHT22;6592;47.484;9.726;2023-09-19T06:57:59;17.50;99.90
13052;DHT22;6592;47.484;9.726;2023-09-19T07:00:28;17.60;99.90
13052;DHT22;6592;47.484;9.726;2023-09-19T07:02:59;17.60;99.90
13052;DHT22;6592;47.484;9.726;2023-09-19T07:05:31;17.70;99.90
13052;DHT22;6592;47.484;9.726;2023-09-19T07:08:00;17.70;99.90
13052;DHT22;6592;47.484;9.726;2023-09-19T07:10:29;17.70;99.90
13052;DHT22;6592;47.484;9.726;2023-09-19T07:12:59;17.60;99.90
13052;DHT22;6592;47.484;9.726;2023-09-19T07:15:29;17.80;99.90
13052;DHT22;6592;47.484;9.726;2023-09-19T07:17:57;17.70;99.90
13052;DHT22;6592;47.484;9.726;2023-09-19T07:20:28;17.70;99.90
13052;DHT22;6592;47.484;9.726;2023-09-19T07:22:59;17.70;99.90
13052;DHT22;6592;47.484;9.726;2023-09-19T07:25:28;17.70;99.90
13052;DHT22;6592;47.484;9.726;2023-09-19T07:27:58;17.70;99.90
13052;DHT22;6592;47.484;9.726;2023-09-19T07:30:28;17.70;99.90
13052;DHT22;6592;47.484;9.726;2023-09-19T07:32:57;17.70;99.90
13052;DHT22;6592;47.484;9.726;2023-09-19T07:35:25;17.80;99.90
13052;DHT22;6592;47.484;9.726;2023-09-19T07:37:54;17.90;99.90
13052;DHT22;6592;47.484;9.726;2023-09-19T07:40:23;18.00;99.90
13052;DHT22;6592;47.484;9.726;2023-09-19T07:42:54;18.10;99.90
13052;DHT22;6592;47.484;9.726;2023-09-19T07:45:23;18.30;99.90
13052;DHT22;6592;47.484;9.726;2023-09-19T07:47:52;18.50;99.90
13052;DHT22;6592;47.484;9.726;2023-09-19T07:50:20;18.50;99.90
13052;DHT22;6592;47.484;9.726;2023-09-19T07:52:49;18.60;99.90
13052;DHT22;6592;47.484;9.726;2023-09-19T07:55:19;18.60;99.90
13052;DHT22;6592;47.484;9.726;2023-09-19T07:57:51;18.60;99.90
13052;DHT22;6592;47.484;9.726;2023-09-19T08:00:19;18.50;99.90
13052;DHT22;6592;47.484;9.726;2023-09-19T08:02:49;18.50;99.90
13052;DHT22;6592;47.484;9.726;2023-09-19T08:05:27;18.50;99.90
13052;DHT22;6592;47.484;9.726;2023-09-19T08:07:55;18.50;99.90
13052;DHT22;6592;47.484;9.726;2023-09-19T08:10:26;18.60;99.90
13052;DHT22;6592;47.484;9.726;2023-09-19T08:12:54;18.80;99.90
13052;DHT22;6592;47.484;9.726;2023-09-19T08:15:25;18.90;99.90
13052;DHT22;6592;47.484;9.726;2023-09-19T08:17:55;19.00;99.90
13052;DHT22;6592;47.484;9.726;2023-09-19T08:20:23;19.20;99.90
13052;DHT22;6592;47.484;9.726;2023-09-19T08:22:53;19.40;99.90
13052;DHT22;6592;47.484;9.726;2023-09-19T08:25:22;19.60;99.90
13052;DHT22;6592;47.484;9.726;2023-09-19T08:27:52;19.70;99.90
13052;DHT22;6592;47.484;9.726;2023-09-19T08:30:21;19.80;99.90
13052;DHT22;6592;47.484;9.726;2023-09-19T08:32:56;19.90;99.90
13052;DHT22;6592;47.484;9.726;2023-09-19T08:35:25;20.10;99.90
13052;DHT22;6592;47.484;9.726;2023-09-19T08:37:53;20.20;99.90
13052;DHT22;6592;47.484;9.726;2023-09-19T08:40:23;20.30;99.90
13052;DHT22;6592;47.484;9.726;2023-09-19T08:42:53;20.70;99.90
13052;DHT22;6592;47.484;9.726;2023-09-19T08:45:22;21.30;99.90
13052;DHT22;6592;47.484;9.726;2023-09-19T08:48:00;21.70;99.90
13052;DHT22;6592;47.484;9.726;2023-09-19T08:50:35;22.40;99.90
13052;DHT22;6592;47.484;9.726;2023-09-19T08:53:10;23.00;99.90
13052;DHT22;6592;47.484;9.726;2023-09-19T08:55:40;23.70;99.90
13052;DHT22;6592;47.484;9.726;2023-09-19T08:58:10;23.80;99.90
13052;DHT22;6592;47.484;9.726;2023-09-19T09:00:40;23.90;99.90
13052;DHT22;6592;47.484;9.726;2023-09-19T09:03:13;24.10;99.90
13052;DHT22;6592;47.484;9.726;2023-09-19T09:05:43;24.10;99.90
13052;DHT22;6592;47.484;9.726;2023-09-19T09:08:13;24.10;99.90
13052;DHT22;6592;47.484;9.726;2023-09-19T09:10:44;24.00;99.90
13052;DHT22;6592;47.484;9.726;2023-09-19T09:13:13;24.10;99.90
13052;DHT22;6592;47.484;9.726;2023-09-19T09:15:42;23.70;99.90
13052;DHT22;6592;47.484;9.726;2023-09-19T09:18:13;22.90;99.90
13052;DHT22;6592;47.484;9.726;2023-09-19T09:20:41;22.20;99.90
13052;DHT22;6592;47.484;9.726;2023-09-19T09:23:11;22.00;99.90
13052;DHT22;6592;47.484;9.726;2023-09-19T09:25:48;21.60;99.90
13052;DHT22;6592;47.484;9.726;2023-09-19T09:28:20;21.30;99.90
13052;DHT22;6592;47.484;9.726;2023-09-19T09:30:49;21.10;99.90
13052;DHT22;6592;47.484;9.726;2023-09-19T09:33:19;20.90;99.90
13052;DHT22;6592;47.484;9.726;2023-09-19T09:35:52;20.90;99.90
13052;DHT22;6592;47.484;9.726;2023-09-19T09:38:25;20.80;99.90
13052;DHT22;6592;47.484;9.726;2023-09-19T09:40:55;20.70;99.90
13052;DHT22;6592;47.484;9.726;2023-09-19T09:43:33;20.40;99.90
13052;DHT22;6592;47.484;9.726;2023-09-19T09:46:14;20.30;99.90
13052;DHT22;6592;47.484;9.726;2023-09-19T09:49:02;20.20;99.90
13052;DHT22;6592;47.484;9.726;2023-09-19T09:51:49;20.30;99.90
13052;DHT22;6592;47.484;9.726;2023-09-19T09:54:27;20.30;99.90
13052;DHT22;6592;47.484;9.726;2023-09-19T09:57:02;20.20;99.90
13052;DHT22;6592;47.484;9.726;2023-09-19T09:59:48;20.10;99.90
13052;DHT22;6592;47.484;9.726;2023-09-19T10:02:19;20.20;99.90
13052;DHT22;6592;47.484;9.726;2023-09-19T10:04:54;20.30;99.90
13052;DHT22;6592;47.484;9.726;2023-09-19T10:07:37;20.60;99.90
13052;DHT22;6592;47.484;9.726;2023-09-19T10:10:11;21.00;99.90
13052;DHT22;6592;47.484;9.726;2023-09-19T10:12:48;21.30;99.90
13052;DHT22;6592;47.484;9.726;2023-09-19T10:15:18;21.50;99.90
13052;DHT22;6592;47.484;9.726;2023-09-19T10:17:48;21.70;99.90
13052;DHT22;6592;47.484;9.726;2023-09-19T10:20:18;21.60;99.90
13052;DHT22;6592;47.484;9.726;2023-09-19T10:23:06;21.50;99.90
13052;DHT22;6592;47.484;9.726;2023-09-19T10:25:39;22.10;99.90
13052;DHT22;6592;47.484;9.726;2023-09-19T10:28:08;22.40;99.90
13052;DHT22;6592;47.484;9.726;2023-09-19T10:30:42;22.50;99.90
13052;DHT22;6592;47.484;9.726;2023-09-19T10:33:13;22.50;99.90
13052;DHT22;6592;47.484;9.726;2023-09-19T10:35:44;22.90;99.90
13052;DHT22;6592;47.484;9.726;2023-09-19T10:38:14;23.00;99.90
13052;DHT22;6592;47.484;9.726;2023-09-19T10:40:49;23.60;99.90
13052;DHT22;6592;47.484;9.726;2023-09-19T10:43:18;23.90;99.90
13052;DHT22;6592;47.484;9.726;2023-09-19T10:45:49;23.90;99.90
13052;DHT22;6592;47.484;9.726;2023-09-19T10:48:20;23.50;99.90
13052;DHT22;6592;47.484;9.726;2023-09-19T10:51:01;23.20;99.90
13052;DHT22;6592;47.484;9.726;2023-09-19T10:53:41;22.70;99.90
13052;DHT22;6592;47.484;9.726;2023-09-19T10:56:18;22.30;99.90
13052;DHT22;6592;47.484;9.726;2023-09-19T10:58:48;22.10;99.90
13052;DHT22;6592;47.484;9.726;2023-09-19T11:01:18;22.00;99.90
13052;DHT22;6592;47.484;9.726;2023-09-19T11:03:47;22.10;99.90
13052;DHT22;6592;47.484;9.726;2023-09-19T11:06:21;22.10;99.90
13052;DHT22;6592;47.484;9.726;2023-09-19T11:08:57;22.20;99.90
13052;DHT22;6592;47.484;9.726;2023-09-19T11:11:46;22.30;99.90
13052;DHT22;6592;47.484;9.726;2023-09-19T11:14:39;22.40;99.90
13052;DHT22;6592;47.484;9.726;2023-09-19T11:17:41;22.70;99.90
13052;DHT22;6592;47.484;9.726;2023-09-19T11:20:23;22.30;99.90
13052;DHT22;6592;47.484;9.726;2023-09-19T11:23:23;21.90;99.90
13052;DHT22;6592;47.484;9.726;2023-09-19T11:25:53;21.90;99.90
13052;DHT22;6592;47.484;9.726;2023-09-19T11:28:35;21.90;99.90
13052;DHT22;6592;47.484;9.726;2023-09-19T11:34:48;22.30;99.90
13052;DHT22;6592;47.484;9.726;2023-09-19T11:40:56;22.30;99.90
13052;DHT22;6592;47.484;9.726;2023-09-19T11:43:35;22.50;99.90
13052;DHT22;6592;47.484;9.726;2023-09-19T11:46:07;23.30;99.90
13052;DHT22;6592;47.484;9.726;2023-09-19T11:48:38;24.20;99.90
13052;DHT22;6592;47.484;9.726;2023-09-19T11:51:16;24.90;99.90
13052;DHT22;6592;47.484;9.726;2023-09-19T11:53:50;25.50;99.90
13052;DHT22;6592;47.484;9.726;2023-09-19T11:56:21;25.60;99.90
13052;DHT22;6592;47.484;9.726;2023-09-19T11:58:52;25.80;99.90
13052;DHT22;6592;47.484;9.726;2023-09-19T12:01:24;25.80;99.90
13052;DHT22;6592;47.484;9.726;2023-09-19T12:03:58;25.70;99.90
13052;DHT22;6592;47.484;9.726;2023-09-19T12:06:28;25.60;99.90
13052;DHT22;6592;47.484;9.726;2023-09-19T12:08:59;25.50;99.90
13052;DHT22;6592;47.484;9.726;2023-09-19T12:11:30;25.50;99.90
13052;DHT22;6592;47.484;9.726;2023-09-19T12:14:02;25.40;99.90
13052;DHT22;6592;47.484;9.726;2023-09-19T12:16:31;25.50;99.90
13052;DHT22;6592;47.484;9.726;2023-09-19T12:19:19;25.70;99.90
13052;DHT22;6592;47.484;9.726;2023-09-19T12:21:56;26.10;99.90
13052;DHT22;6592;47.484;9.726;2023-09-19T12:24:27;26.50;99.90
13052;DHT22;6592;47.484;9.726;2023-09-19T12:27:02;27.10;99.90
13052;DHT22;6592;47.484;9.726;2023-09-19T12:29:42;27.70;99.90
13052;DHT22;6592;47.484;9.726;2023-09-19T12:32:10;28.60;99.90
13052;DHT22;6592;47.484;9.726;2023-09-19T12:34:39;29.60;99.90
13052;DHT22;6592;47.484;9.726;2023-09-19T12:37:11;30.30;99.90
13052;DHT22;6592;47.484;9.726;2023-09-19T12:39:43;31.20;99.90
13052;DHT22;6592;47.484;9.726;2023-09-19T12:42:18;31.80;99.90
13052;DHT22;6592;47.484;9.726;2023-09-19T12:44:48;32.30;99.90
13052;DHT22;6592;47.484;9.726;2023-09-19T12:47:19;32.70;99.90
13052;DHT22;6592;47.484;9.726;2023-09-19T12:50:06;32.70;99.90
13052;DHT22;6592;47.484;9.726;2023-09-19T12:52:41;32.40;99.90
13052;DHT22;6592;47.484;9.726;2023-09-19T12:55:19;32.30;99.90
13052;DHT22;6592;47.484;9.726;2023-09-19T12:58:11;32.90;99.90
13052;DHT22;6592;47.484;9.726;2023-09-19T13:00:41;33.50;97.40
13052;DHT22;6592;47.484;9.726;2023-09-19T13:03:12;34.10;98.90
13052;DHT22;6592;47.484;9.726;2023-09-19T13:05:50;34.80;96.10
13052;DHT22;6592;47.484;9.726;2023-09-19T13:08:23;34.60;90.50
13052;DHT22;6592;47.484;9.726;2023-09-19T13:11:07;34.40;91.60
13052;DHT22;6592;47.484;9.726;2023-09-19T13:13:42;34.20;92.20
13052;DHT22;6592;47.484;9.726;2023-09-19T13:16:14;34.00;91.70
13052;DHT22;6592;47.484;9.726;2023-09-19T13:18:48;33.80;93.20
13052;DHT22;6592;47.484;9.726;2023-09-19T13:21:27;33.90;93.00
13052;DHT22;6592;47.484;9.726;2023-09-19T13:23:58;33.90;91.40
13052;DHT22;6592;47.484;9.726;2023-09-19T13:26:44;34.00;93.00
13052;DHT22;6592;47.484;9.726;2023-09-19T13:29:15;34.60;91.60
13052;DHT22;6592;47.484;9.726;2023-09-19T13:31:46;34.90;90.80
13052;DHT22;6592;47.484;9.726;2023-09-19T13:34:15;34.90;87.20
13052;DHT22;6592;47.484;9.726;2023-09-19T13:36:44;34.90;88.20
13052;DHT22;6592;47.484;9.726;2023-09-19T13:39:15;35.10;89.30
13052;DHT22;6592;47.484;9.726;2023-09-19T13:41:44;35.40;85.50
13052;DHT22;6592;47.484;9.726;2023-09-19T13:44:15;35.60;84.20
13052;DHT22;6592;47.484;9.726;2023-09-19T13:46:44;35.60;81.50
13052;DHT22;6592;47.484;9.726;2023-09-19T13:49:14;35.90;85.80
13052;DHT22;6592;47.484;9.726;2023-09-19T13:51:42;36.20;81.60
13052;DHT22;6592;47.484;9.726;2023-09-19T13:54:11;36.70;78.80
13052;DHT22;6592;47.484;9.726;2023-09-19T13:56:41;36.70;78.10
13052;DHT22;6592;47.484;9.726;2023-09-19T13:59:10;36.90;77.10
13052;DHT22;6592;47.484;9.726;2023-09-19T14:01:39;36.70;75.30
13052;DHT22;6592;47.484;9.726;2023-09-19T14:04:08;36.80;73.60
13052;DHT22;6592;47.484;9.726;2023-09-19T14:06:42;37.10;74.20
13052;DHT22;6592;47.484;9.726;2023-09-19T14:09:10;37.50;73.50
13052;DHT22;6592;47.484;9.726;2023-09-19T14:11:40;37.60;74.20
13052;DHT22;6592;47.484;9.726;2023-09-19T14:14:09;37.80;73.70
13052;DHT22;6592;47.484;9.726;2023-09-19T14:16:39;38.00;70.10
13052;DHT22;6592;47.484;9.726;2023-09-19T14:19:09;37.70;67.40
13052;DHT22;6592;47.484;9.726;2023-09-19T14:21:37;37.00;67.90
13052;DHT22;6592;47.484;9.726;2023-09-19T14:24:06;36.50;70.00
13052;DHT22;6592;47.484;9.726;2023-09-19T14:26:36;36.50;70.80
13052;DHT22;6592;47.484;9.726;2023-09-19T14:29:04;36.30;70.60
13052;DHT22;6592;47.484;9.726;2023-09-19T14:31:38;36.50;70.90
13052;DHT22;6592;47.484;9.726;2023-09-19T14:34:07;36.60;70.10
13052;DHT22;6592;47.484;9.726;2023-09-19T14:36:37;36.60;68.60
13052;DHT22;6592;47.484;9.726;2023-09-19T14:39:05;36.60;68.30
13052;DHT22;6592;47.484;9.726;2023-09-19T14:41:35;36.80;69.30
13052;DHT22;6592;47.484;9.726;2023-09-19T14:44:04;36.90;67.60
13052;DHT22;6592;47.484;9.726;2023-09-19T14:46:32;36.90;68.10
13052;DHT22;6592;47.484;9.726;2023-09-19T14:49:02;37.30;67.20
13052;DHT22;6592;47.484;9.726;2023-09-19T14:51:31;37.40;67.60
13052;DHT22;6592;47.484;9.726;2023-09-19T14:53:59;37.50;68.20
13052;DHT22;6592;47.484;9.726;2023-09-19T14:56:30;37.60;67.20
13052;DHT22;6592;47.484;9.726;2023-09-19T14:58:58;37.80;66.30
13052;DHT22;6592;47.484;9.726;2023-09-19T15:01:26;37.80;64.50
13052;DHT22;6592;47.484;9.726;2023-09-19T15:03:55;37.60;64.60
13052;DHT22;6592;47.484;9.726;2023-09-19T15:06:25;37.40;64.40
13052;DHT22;6592;47.484;9.726;2023-09-19T15:08:53;37.00;65.20
13052;DHT22;6592;47.484;9.726;2023-09-19T15:11:22;36.80;66.10
13052;DHT22;6592;47.484;9.726;2023-09-19T15:13:52;36.40;66.60
13052;DHT22;6592;47.484;9.726;2023-09-19T15:16:20;36.10;67.40
13052;DHT22;6592;47.484;9.726;2023-09-19T15:18:49;36.00;67.30
13052;DHT22;6592;47.484;9.726;2023-09-19T15:21:19;35.90;67.00
13052;DHT22;6592;47.484;9.726;2023-09-19T15:23:49;35.80;66.50
13052;DHT22;6592;47.484;9.726;2023-09-19T15:26:18;35.40;67.00
13052;DHT22;6592;47.484;9.726;2023-09-19T15:28:48;35.00;68.40
13052;DHT22;6592;47.484;9.726;2023-09-19T15:31:17;34.70;69.40
13052;DHT22;6592;47.484;9.726;2023-09-19T15:33:45;34.40;69.70
13052;DHT22;6592;47.484;9.726;2023-09-19T15:36:15;34.00;70.20
13052;DHT22;6592;47.484;9.726;2023-09-19T15:38:57;33.60;70.00
13052;DHT22;6592;47.484;9.726;2023-09-19T15:41:27;33.20;72.20
13052;DHT22;6592;47.484;9.726;2023-09-19T15:43:56;32.80;72.50
13052;DHT22;6592;47.484;9.726;2023-09-19T15:46:26;32.30;73.40
13052;DHT22;6592;47.484;9.726;2023-09-19T15:48:57;31.80;75.80
13052;DHT22;6592;47.484;9.726;2023-09-19T15:51:25;31.20;75.80
13052;DHT22;6592;47.484;9.726;2023-09-19T15:53:55;30.70;77.20
13052;DHT22;6592;47.484;9.726;2023-09-19T15:56:24;30.20;78.50
13052;DHT22;6592;47.484;9.726;2023-09-19T15:58:54;29.60;78.90
13052;DHT22;6592;47.484;9.726;2023-09-19T16:01:23;29.20;80.30
13052;DHT22;6592;47.484;9.726;2023-09-19T16:03:53;28.70;81.00
13052;DHT22;6592;47.484;9.726;2023-09-19T16:06:23;28.40;81.60
13052;DHT22;6592;47.484;9.726;2023-09-19T16:08:55;28.10;82.00
13052;DHT22;6592;47.484;9.726;2023-09-19T16:11:26;27.80;83.70
13052;DHT22;6592;47.484;9.726;2023-09-19T16:13:55;27.50;84.90
13052;DHT22;6592;47.484;9.726;2023-09-19T16:16:28;27.10;86.10
13052;DHT22;6592;47.484;9.726;2023-09-19T16:18:59;26.80;87.10
13052;DHT22;6592;47.484;9.726;2023-09-19T16:21:30;26.50;88.00